createdAt,value
2019-05-19T00:01:42.170Z,12.40
2019-05-19T00:04:11.776Z,12.40
2019-05-19T00:06:41.488Z,12.20
2019-05-19T00:09:11.169Z,12.00
2019-05-19T00:11:40.984Z,12.00
2019-05-19T00:14:11.751Z,12.00
2019-05-19T00:16:41.453Z,12.00
2019-05-19T00:19:25.542Z,12.00
2019-05-19T00:21:42.410Z,12.20
2019-05-19T00:24:12.120Z,12.50
2019-05-19T00:26:41.830Z,12.40
2019-05-19T00:29:12.564Z,12.10
2019-05-19T00:31:42.250Z,12.00
2019-05-19T00:34:11.984Z,12.00
2019-05-19T00:36:41.592Z,11.90
2019-05-19T00:39:11.408Z,11.80
2019-05-19T00:41:40.998Z,11.80
2019-05-19T00:44:11.721Z,11.80
2019-05-19T00:46:41.456Z,11.70
2019-05-19T00:49:11.167Z,11.60
2019-05-19T00:51:40.877Z,11.60
2019-05-19T00:54:10.588Z,11.70
2019-05-19T00:56:40.297Z,11.70
2019-05-19T00:59:09.905Z,11.50
2019-05-19T01:01:41.389Z,11.50
2019-05-19T01:04:10.863Z,11.90
2019-05-19T01:06:40.571Z,11.80
2019-05-19T01:09:10.284Z,11.50
2019-05-19T01:11:39.991Z,11.30
2019-05-19T01:14:09.714Z,11.40
2019-05-19T01:16:41.058Z,11.80
2019-05-19T01:19:10.659Z,12.20
2019-05-19T01:21:41.325Z,12.10
2019-05-19T01:24:11.000Z,11.70
2019-05-19T01:26:40.683Z,11.40
2019-05-19T01:29:11.383Z,11.10
2019-05-19T01:31:41.154Z,11.10
2019-05-19T01:34:10.835Z,11.30
2019-05-19T01:36:42.345Z,11.20
2019-05-19T01:39:12.025Z,11.10
2019-05-19T01:41:41.710Z,11.10
2019-05-19T01:44:13.306Z,11.20
2019-05-19T01:46:42.662Z,11.10
2019-05-19T01:49:12.401Z,11.00
2019-05-19T01:51:42.083Z,10.90
2019-05-19T01:54:11.794Z,10.90
2019-05-19T01:56:41.533Z,10.80
2019-05-19T01:59:11.215Z,10.70
2019-05-19T02:01:40.956Z,10.80
2019-05-19T02:04:10.663Z,10.80
2019-05-19T02:06:41.242Z,10.90
2019-05-19T02:09:10.982Z,11.00
2019-05-19T02:11:40.857Z,11.10
2019-05-19T02:14:10.632Z,11.10
2019-05-19T02:16:40.340Z,11.20
2019-05-19T02:19:10.023Z,11.30
2019-05-19T02:21:39.761Z,11.30
2019-05-19T02:24:09.470Z,11.30
2019-05-19T02:26:40.206Z,11.30
2019-05-19T02:29:09.887Z,11.30
2019-05-19T02:31:39.625Z,11.30
2019-05-19T02:34:10.259Z,11.30
2019-05-19T02:36:39.938Z,11.40
2019-05-19T02:39:09.600Z,11.30
2019-05-19T02:41:40.414Z,11.20
2019-05-19T02:44:11.101Z,11.10
2019-05-19T02:46:40.933Z,11.00
2019-05-19T02:49:10.992Z,11.00
2019-05-19T02:51:40.993Z,11.00
2019-05-19T02:54:10.679Z,11.00
2019-05-19T02:56:40.429Z,11.10
2019-05-19T02:59:10.125Z,11.00
2019-05-19T03:01:41.374Z,11.00
2019-05-19T03:04:11.084Z,11.00
2019-05-19T03:06:40.789Z,11.10
2019-05-19T03:09:10.473Z,11.10
2019-05-19T03:11:40.116Z,11.00
2019-05-19T03:14:11.538Z,11.10
2019-05-19T03:16:41.142Z,11.20
2019-05-19T03:19:10.877Z,11.20
2019-05-19T03:21:40.561Z,11.20
2019-05-19T03:24:10.297Z,11.20
2019-05-19T03:26:39.984Z,11.10
2019-05-19T03:29:11.562Z,11.10
2019-05-19T03:31:48.645Z,11.10
2019-05-19T03:34:19.148Z,11.20
2019-05-19T03:36:48.855Z,11.30
2019-05-19T03:39:18.597Z,11.20
2019-05-19T03:41:48.279Z,11.20
2019-05-19T03:44:18.014Z,11.10
2019-05-19T03:46:47.628Z,11.10
2019-05-19T03:49:18.084Z,11.10
2019-05-19T03:51:47.863Z,11.10
2019-05-19T03:54:18.509Z,11.20
2019-05-19T03:56:49.212Z,11.10
2019-05-19T03:59:18.836Z,11.10
2019-05-19T04:01:48.546Z,11.20
2019-05-19T04:04:18.231Z,11.20
2019-05-19T04:06:47.967Z,11.30
2019-05-19T04:09:18.659Z,11.40
2019-05-19T04:11:48.307Z,11.50
2019-05-19T04:14:17.987Z,11.60
2019-05-19T04:16:49.269Z,11.70
2019-05-19T04:19:19.802Z,11.70
2019-05-19T04:21:49.831Z,11.70
2019-05-19T04:24:19.612Z,11.70
2019-05-19T04:26:49.334Z,11.70
2019-05-19T04:29:20.821Z,11.70
2019-05-19T04:31:50.495Z,11.70
2019-05-19T04:34:20.204Z,11.80
2019-05-19T04:36:49.891Z,11.80
2019-05-19T04:39:19.624Z,11.80
2019-05-19T04:41:49.336Z,11.90
2019-05-19T04:44:19.044Z,11.90
2019-05-19T04:46:50.488Z,11.80
2019-05-19T04:49:20.104Z,11.80
2019-05-19T04:52:05.593Z,11.80
2019-05-19T04:54:21.031Z,11.80
2019-05-19T04:56:51.719Z,11.90
2019-05-19T04:59:21.408Z,12.00
2019-05-19T05:01:52.984Z,12.00
2019-05-19T05:04:22.460Z,12.20
2019-05-19T05:06:52.171Z,12.20
2019-05-19T05:09:21.879Z,12.30
2019-05-19T05:11:51.591Z,12.30
2019-05-19T05:14:21.271Z,12.30
2019-05-19T05:16:50.910Z,12.20
2019-05-19T05:19:20.619Z,12.30
2019-05-19T05:21:50.304Z,12.40
2019-05-19T05:24:20.015Z,12.50
2019-05-19T05:26:49.750Z,12.50
2019-05-19T05:29:19.431Z,12.40
2019-05-19T05:31:49.170Z,12.40
2019-05-19T05:34:18.855Z,12.30
2019-05-19T05:36:48.464Z,12.30
2019-05-19T05:39:18.208Z,12.30
2019-05-19T05:41:47.815Z,12.30
2019-05-19T05:44:17.515Z,12.30
2019-05-19T05:46:47.199Z,12.30
2019-05-19T05:49:16.937Z,12.30
2019-05-19T05:51:46.646Z,12.40
2019-05-19T05:54:16.356Z,12.40
2019-05-19T05:56:46.039Z,12.50
2019-05-19T05:59:17.501Z,12.60
2019-05-19T06:01:47.126Z,12.60
2019-05-19T06:04:16.836Z,12.80
2019-05-19T06:06:46.545Z,13.00
2019-05-19T06:09:16.257Z,13.20
2019-05-19T06:11:45.966Z,13.20
2019-05-19T06:14:16.700Z,13.30
2019-05-19T06:16:46.386Z,13.30
2019-05-19T06:19:16.095Z,13.20
2019-05-19T06:21:45.729Z,13.40
2019-05-19T06:24:15.439Z,13.50
2019-05-19T06:26:45.148Z,13.70
2019-05-19T06:29:14.859Z,13.70
2019-05-19T06:31:44.570Z,14.00
2019-05-19T06:34:14.279Z,14.30
2019-05-19T06:36:43.995Z,14.50
2019-05-19T06:39:13.700Z,14.50
2019-05-19T06:41:44.353Z,14.50
2019-05-19T06:44:14.042Z,14.60
2019-05-19T06:46:43.751Z,14.40
2019-05-19T06:49:13.461Z,14.40
2019-05-19T06:51:43.172Z,14.40
2019-05-19T06:54:12.855Z,14.50
2019-05-19T06:56:42.592Z,14.60
2019-05-19T06:59:12.308Z,14.60
2019-05-19T07:01:42.013Z,14.70
2019-05-19T07:04:12.730Z,15.00
2019-05-19T07:06:42.568Z,15.20
2019-05-19T07:09:13.271Z,15.10
2019-05-19T07:11:43.013Z,15.20
2019-05-19T07:14:12.712Z,15.70
2019-05-19T07:16:42.425Z,15.90
2019-05-19T07:19:12.153Z,16.00
2019-05-19T07:21:41.742Z,16.10
2019-05-19T07:24:11.453Z,16.10
2019-05-19T07:26:41.162Z,16.20
2019-05-19T07:29:10.873Z,16.30
2019-05-19T07:31:40.587Z,16.40
2019-05-19T07:34:10.295Z,16.40
2019-05-19T07:36:40.004Z,16.70
2019-05-19T07:39:09.714Z,16.70
2019-05-19T07:41:41.111Z,16.70
2019-05-19T07:44:10.851Z,16.70
2019-05-19T07:46:40.585Z,16.60
2019-05-19T07:49:10.298Z,16.70
2019-05-19T07:51:39.920Z,17.10
2019-05-19T07:54:09.656Z,17.00
2019-05-19T07:56:39.366Z,17.20
2019-05-19T07:59:09.095Z,17.50
2019-05-19T08:01:38.788Z,17.50
2019-05-19T08:04:08.498Z,17.30
2019-05-19T08:06:39.191Z,17.00
2019-05-19T08:09:08.839Z,16.80
2019-05-19T08:11:38.551Z,16.70
2019-05-19T08:14:09.226Z,16.90
2019-05-19T08:16:38.994Z,16.90
2019-05-19T08:19:08.707Z,17.00
2019-05-19T08:21:38.415Z,17.00
2019-05-19T08:24:08.123Z,17.00
2019-05-19T08:26:37.837Z,17.10
2019-05-19T08:29:07.542Z,17.40
2019-05-19T08:31:37.260Z,17.70
2019-05-19T08:34:07.067Z,18.20
2019-05-19T08:36:36.983Z,18.10
2019-05-19T08:39:06.999Z,18.00
2019-05-19T08:41:36.711Z,17.90
2019-05-19T08:44:06.417Z,18.10
2019-05-19T08:46:36.127Z,18.10
2019-05-19T08:49:07.765Z,18.40
2019-05-19T08:51:37.186Z,18.50
2019-05-19T08:54:14.533Z,18.70
2019-05-19T08:56:38.247Z,18.60
2019-05-19T08:59:07.819Z,18.70
2019-05-19T09:01:37.563Z,18.50
2019-05-19T09:04:07.274Z,18.40
2019-05-19T09:06:36.983Z,18.80
2019-05-19T09:09:06.694Z,19.00
2019-05-19T09:11:36.404Z,19.20
2019-05-19T09:14:06.115Z,19.00
2019-05-19T09:16:35.796Z,19.00
2019-05-19T09:19:05.535Z,19.30
2019-05-19T09:21:35.246Z,19.50
2019-05-19T09:24:04.954Z,19.90
2019-05-19T09:26:34.664Z,19.80
2019-05-19T09:29:04.347Z,19.80
2019-05-19T09:31:34.089Z,20.00
2019-05-19T09:34:03.771Z,20.10
2019-05-19T09:36:33.504Z,19.90
2019-05-19T09:39:04.753Z,19.80
2019-05-19T09:41:34.461Z,20.10
2019-05-19T09:44:04.377Z,19.50
2019-05-19T09:46:35.061Z,19.60
2019-05-19T09:49:22.740Z,19.80
2019-05-19T09:51:52.619Z,19.70
2019-05-19T09:54:22.573Z,20.20
2019-05-19T09:56:52.180Z,20.30
2019-05-19T09:59:21.889Z,20.60
2019-05-19T10:04:24.585Z,21.00
2019-05-19T10:06:54.296Z,21.70
2019-05-19T10:10:06.538Z,21.10
2019-05-19T10:12:36.183Z,21.30
2019-05-19T10:15:06.761Z,21.70
2019-05-19T10:17:36.563Z,21.70
2019-05-19T10:20:07.642Z,21.60
2019-05-19T10:22:37.416Z,21.60
2019-05-19T10:25:20.841Z,21.60
2019-05-19T10:27:39.814Z,21.80
2019-05-19T10:30:09.515Z,21.80
2019-05-19T10:32:39.225Z,21.60
2019-05-19T10:35:08.939Z,21.20
2019-05-19T10:37:39.634Z,21.70
2019-05-19T10:40:09.278Z,21.80
2019-05-19T10:42:38.959Z,22.00
2019-05-19T10:45:10.155Z,21.80
2019-05-19T10:47:39.841Z,21.70
2019-05-19T10:50:09.523Z,21.50
2019-05-19T10:52:39.264Z,21.70
2019-05-19T10:55:08.948Z,22.50
2019-05-19T10:57:38.682Z,22.80
2019-05-19T11:00:09.313Z,23.60
2019-05-19T11:02:39.001Z,24.30
2019-05-19T11:05:11.183Z,25.40
2019-05-19T11:07:40.040Z,24.80
2019-05-19T11:10:09.793Z,25.00
2019-05-19T11:12:39.504Z,26.20
2019-05-19T11:15:09.214Z,27.70
2019-05-19T11:17:38.923Z,28.60
2019-05-19T11:20:08.530Z,28.10
2019-05-19T11:22:38.241Z,27.90
2019-05-19T11:25:07.951Z,27.50
2019-05-19T11:27:37.663Z,27.90
2019-05-19T11:30:08.368Z,26.90
2019-05-19T11:32:38.123Z,27.50
2019-05-19T11:35:07.820Z,26.80
2019-05-19T11:37:37.399Z,27.60
2019-05-19T11:40:07.137Z,28.10
2019-05-19T11:42:36.845Z,29.00
2019-05-19T11:45:09.806Z,29.90
2019-05-19T11:47:39.418Z,30.00
2019-05-19T11:50:09.149Z,28.40
2019-05-19T11:52:38.831Z,28.10
2019-05-19T11:55:09.538Z,27.70
2019-05-19T11:57:39.275Z,26.20
2019-05-19T12:00:09.600Z,25.50
2019-05-19T12:02:39.340Z,25.40
2019-05-19T12:05:09.048Z,25.90
2019-05-19T12:07:38.758Z,24.80
2019-05-19T12:10:09.847Z,24.70
2019-05-19T12:12:39.584Z,25.10
2019-05-19T12:15:10.245Z,25.30
2019-05-19T12:17:39.927Z,25.20
2019-05-19T12:20:09.665Z,25.50
2019-05-19T12:22:39.374Z,25.70
2019-05-19T12:25:09.059Z,25.10
2019-05-19T12:27:40.509Z,24.40
2019-05-19T12:30:11.729Z,24.40
2019-05-19T12:32:41.504Z,24.50
2019-05-19T12:35:11.202Z,24.70
2019-05-19T12:37:41.940Z,25.00
2019-05-19T12:40:11.647Z,25.20
2019-05-19T12:42:41.356Z,25.70
2019-05-19T12:45:11.087Z,25.50
2019-05-19T12:47:40.778Z,25.70
2019-05-19T12:50:11.000Z,25.90
2019-05-19T12:52:40.710Z,26.10
2019-05-19T12:55:10.401Z,26.30
2019-05-19T12:57:40.130Z,26.10
2019-05-19T13:00:10.823Z,26.00
2019-05-19T13:02:40.485Z,26.10
2019-05-19T13:05:10.182Z,26.20
2019-05-19T13:07:39.901Z,26.30
2019-05-19T13:10:09.602Z,26.60
2019-05-19T13:12:39.210Z,27.10
2019-05-19T13:15:09.023Z,27.10
2019-05-19T13:17:38.704Z,27.30
2019-05-19T13:20:08.454Z,28.00
2019-05-19T13:22:38.206Z,28.30
2019-05-19T13:25:07.931Z,29.50
2019-05-19T13:27:37.699Z,29.80
2019-05-19T13:30:07.465Z,29.80
2019-05-19T13:32:37.199Z,29.60
2019-05-19T13:35:07.833Z,28.90
2019-05-19T13:37:37.512Z,28.50
2019-05-19T13:40:07.147Z,29.60
2019-05-19T13:42:37.820Z,30.30
2019-05-19T13:45:07.462Z,29.50
2019-05-19T13:47:37.202Z,30.40
2019-05-19T13:50:07.508Z,30.30
2019-05-19T13:52:37.246Z,30.30
2019-05-19T13:55:07.252Z,30.30
2019-05-19T13:57:36.969Z,29.90
2019-05-19T14:00:06.674Z,31.60
2019-05-19T14:02:49.932Z,32.30
2019-05-19T14:05:19.610Z,32.90
2019-05-19T14:07:49.321Z,32.80
2019-05-19T14:10:19.030Z,31.70
2019-05-19T14:12:48.743Z,32.20
2019-05-19T14:15:20.166Z,32.90
2019-05-19T14:17:49.800Z,32.80
2019-05-19T14:20:19.490Z,32.00
2019-05-19T14:22:49.220Z,32.30
2019-05-19T14:25:19.896Z,31.40
2019-05-19T14:27:49.563Z,30.60
2019-05-19T14:30:19.244Z,31.40
2019-05-19T14:32:48.850Z,32.30
2019-05-19T14:35:18.589Z,31.90
2019-05-19T14:37:48.197Z,32.60
2019-05-19T14:40:17.912Z,33.20
2019-05-19T14:42:50.365Z,33.30
2019-05-19T14:45:19.994Z,33.60
2019-05-19T14:47:49.700Z,33.10
2019-05-19T14:50:19.415Z,34.20
2019-05-19T14:52:49.090Z,35.30
2019-05-19T14:55:19.086Z,36.20
2019-05-19T14:57:48.848Z,36.10
2019-05-19T15:00:20.456Z,36.60
2019-05-19T15:02:49.078Z,35.10
2019-05-19T15:05:18.699Z,33.50
2019-05-19T15:07:48.378Z,31.90
2019-05-19T15:10:18.833Z,30.60
2019-05-19T15:12:48.545Z,28.90
2019-05-19T15:15:18.264Z,27.90
2019-05-19T15:17:47.935Z,29.10
2019-05-19T15:20:17.645Z,30.10
2019-05-19T15:22:47.384Z,30.80
2019-05-19T15:25:17.094Z,32.10
2019-05-19T15:27:59.240Z,32.80
2019-05-19T15:30:19.055Z,31.40
2019-05-19T15:32:50.473Z,31.30
2019-05-19T15:35:20.133Z,30.70
2019-05-19T15:37:49.846Z,29.00
2019-05-19T15:40:19.528Z,28.30
2019-05-19T15:42:49.235Z,28.10
2019-05-19T15:45:18.973Z,27.40
2019-05-19T15:47:48.685Z,27.10
2019-05-19T15:50:20.348Z,26.10
2019-05-19T15:52:49.647Z,25.10
2019-05-19T15:55:20.338Z,24.70
2019-05-19T15:57:49.987Z,25.10
2019-05-19T16:00:19.705Z,25.20
2019-05-19T16:02:49.300Z,24.70
2019-05-19T16:05:19.012Z,24.50
2019-05-19T16:07:48.768Z,24.30
2019-05-19T16:10:18.507Z,24.40
2019-05-19T16:12:48.243Z,24.40
2019-05-19T16:15:19.417Z,24.30
2019-05-19T16:17:49.099Z,23.90
2019-05-19T16:20:18.781Z,23.90
2019-05-19T16:22:49.459Z,24.00
2019-05-19T16:25:19.019Z,24.10
2019-05-19T16:27:48.757Z,23.70
2019-05-19T16:30:18.370Z,23.70
2019-05-19T16:32:48.046Z,23.60
2019-05-19T16:35:17.787Z,23.70
2019-05-19T16:37:47.526Z,23.90
2019-05-19T16:40:17.310Z,23.60
2019-05-19T16:42:47.021Z,23.60
2019-05-19T16:45:16.728Z,23.50
2019-05-19T16:47:48.165Z,23.70
2019-05-19T16:50:17.892Z,23.90
2019-05-19T16:52:47.576Z,23.90
2019-05-19T16:55:21.788Z,23.40
2019-05-19T16:57:53.246Z,23.30
2019-05-19T17:00:23.386Z,23.20
2019-05-19T17:03:05.355Z,23.10
2019-05-19T17:05:35.382Z,22.90
2019-05-19T17:08:05.089Z,22.80
2019-05-19T17:10:34.823Z,22.80
2019-05-19T17:13:04.431Z,22.80
2019-05-19T17:15:34.036Z,22.80
2019-05-19T17:18:03.757Z,22.50
2019-05-19T17:20:34.483Z,22.40
2019-05-19T17:23:04.192Z,22.30
2019-05-19T17:25:34.850Z,22.20
2019-05-19T17:28:04.535Z,22.10
2019-05-19T17:30:34.246Z,21.90
2019-05-19T17:33:05.656Z,21.80
2019-05-19T17:35:35.458Z,21.60
2019-05-19T17:38:05.218Z,21.60
2019-05-19T17:40:34.929Z,21.60
2019-05-19T17:43:04.640Z,21.40
2019-05-19T17:45:34.349Z,21.20
2019-05-19T17:48:09.969Z,21.10
2019-05-19T17:50:35.593Z,21.00
2019-05-19T17:53:06.272Z,20.90
2019-05-19T17:55:36.028Z,20.90
2019-05-19T17:58:05.769Z,20.70
2019-05-19T18:00:38.841Z,20.40
2019-05-19T18:03:07.707Z,20.20
2019-05-19T18:05:37.436Z,19.90
2019-05-19T18:08:08.063Z,19.60
2019-05-19T18:10:37.808Z,19.50
2019-05-19T18:13:07.511Z,19.30
2019-05-19T18:15:37.451Z,19.10
2019-05-19T18:18:07.134Z,18.80
2019-05-19T18:20:36.816Z,18.60
2019-05-19T18:23:06.555Z,18.50
2019-05-19T18:25:36.166Z,18.40
2019-05-19T18:28:05.874Z,18.20
2019-05-19T18:30:36.830Z,18.20
2019-05-19T18:33:06.626Z,18.00
2019-05-19T18:35:36.344Z,17.70
2019-05-19T18:38:07.763Z,17.10
2019-05-19T18:40:37.496Z,16.40
2019-05-19T18:43:08.156Z,15.90
2019-05-19T18:45:37.944Z,15.60
2019-05-19T18:48:07.628Z,15.40
2019-05-19T18:50:37.362Z,15.30
2019-05-19T18:53:07.045Z,15.20
2019-05-19T18:55:36.781Z,15.30
2019-05-19T18:58:06.491Z,15.30
2019-05-19T19:00:37.430Z,15.00
2019-05-19T19:03:07.216Z,14.80
2019-05-19T19:05:36.953Z,14.70
2019-05-19T19:08:06.638Z,14.80
2019-05-19T19:10:36.378Z,14.90
2019-05-19T19:13:06.060Z,14.90
2019-05-19T19:15:35.797Z,14.80
2019-05-19T19:18:05.504Z,14.80
2019-05-19T19:20:35.526Z,14.70
2019-05-19T19:23:05.208Z,14.80
2019-05-19T19:25:34.948Z,14.70
2019-05-19T19:28:04.623Z,14.60
2019-05-19T19:30:34.360Z,14.60
2019-05-19T19:33:04.076Z,14.50
2019-05-19T19:35:39.304Z,14.50
2019-05-19T19:38:05.104Z,14.50
2019-05-19T19:40:35.737Z,14.60
2019-05-19T19:43:05.478Z,14.60
2019-05-19T19:45:35.156Z,14.60
2019-05-19T19:48:04.896Z,14.60
2019-05-19T19:50:34.870Z,14.50
2019-05-19T19:53:04.723Z,14.50
2019-05-19T19:55:34.435Z,14.60
2019-05-19T19:58:05.065Z,14.70
2019-05-19T20:00:42.141Z,14.70
2019-05-19T20:03:11.878Z,14.80
2019-05-19T20:05:44.334Z,14.90
2019-05-19T20:08:14.016Z,15.00
2019-05-19T20:10:43.754Z,15.10
2019-05-19T20:13:13.464Z,15.10
2019-05-19T20:15:43.174Z,15.00
2019-05-19T20:18:12.791Z,15.00
2019-05-19T20:20:42.465Z,15.00
2019-05-19T20:23:12.101Z,15.10
2019-05-19T20:25:41.810Z,14.90
2019-05-19T20:28:11.521Z,14.70
2019-05-19T20:30:43.157Z,14.60
2019-05-19T20:33:18.825Z,14.40
2019-05-19T20:35:48.434Z,14.30
2019-05-19T20:38:18.166Z,14.30
2019-05-19T20:40:48.853Z,14.30
2019-05-19T20:43:18.633Z,14.30
2019-05-19T20:45:48.401Z,14.40
2019-05-19T20:48:18.111Z,14.50
2019-05-19T20:50:47.820Z,14.40
2019-05-19T20:53:17.532Z,14.50
2019-05-19T20:55:47.241Z,14.70
2019-05-19T20:58:16.867Z,14.80
2019-05-19T21:00:50.498Z,14.80
2019-05-19T21:03:17.804Z,14.70
2019-05-19T21:05:47.515Z,14.60
2019-05-19T21:08:17.225Z,14.60
2019-05-19T21:10:46.908Z,14.60
2019-05-19T21:13:16.645Z,14.60
2019-05-19T21:15:46.357Z,14.60
2019-05-19T21:18:17.017Z,14.60
2019-05-19T21:20:48.910Z,14.70
2019-05-19T21:23:18.046Z,14.70
2019-05-19T21:25:47.732Z,14.70
2019-05-19T21:28:17.365Z,14.60
2019-05-19T21:30:47.074Z,14.60
2019-05-19T21:33:16.786Z,14.70
2019-05-19T21:35:46.363Z,14.80
2019-05-19T21:38:16.102Z,14.90
2019-05-19T21:40:45.813Z,14.70
2019-05-19T21:43:15.495Z,14.50
2019-05-19T21:45:46.128Z,14.30
2019-05-19T21:48:17.396Z,14.20
2019-05-19T21:50:47.111Z,14.30
2019-05-19T21:53:16.828Z,14.30
2019-05-19T21:55:46.533Z,14.10
2019-05-19T21:58:16.242Z,14.10
2019-05-19T22:00:46.258Z,14.10
2019-05-19T22:03:16.088Z,13.90
2019-05-19T22:05:53.307Z,13.80
2019-05-19T22:08:18.460Z,13.80
2019-05-19T22:10:48.174Z,13.80
2019-05-19T22:13:17.856Z,14.00
2019-05-19T22:15:48.558Z,14.00
2019-05-19T22:18:18.223Z,14.00
2019-05-19T22:20:47.937Z,13.90
2019-05-19T22:23:17.642Z,13.90
2019-05-19T22:25:47.330Z,13.90
2019-05-19T22:28:17.066Z,13.90
2019-05-19T22:30:46.751Z,13.90
2019-05-19T22:33:16.484Z,14.00
2019-05-19T22:35:46.171Z,14.00
2019-05-19T22:38:16.827Z,14.10
2019-05-19T22:40:46.536Z,14.30
2019-05-19T22:43:16.247Z,14.30
2019-05-19T22:45:45.959Z,14.40
2019-05-19T22:48:15.668Z,14.50
2019-05-19T22:50:45.381Z,14.50
2019-05-19T22:53:15.087Z,14.60
2019-05-19T22:55:44.900Z,14.40
2019-05-19T22:58:14.610Z,14.30
2019-05-19T23:00:44.329Z,14.10
2019-05-19T23:03:14.110Z,14.10
2019-05-19T23:05:43.844Z,14.10
2019-05-19T23:08:14.577Z,14.10
2019-05-19T23:10:44.289Z,13.90
2019-05-19T23:13:13.998Z,13.90
2019-05-19T23:15:43.708Z,13.90
2019-05-19T23:18:13.394Z,13.90
2019-05-19T23:20:43.130Z,13.80
2019-05-19T23:23:13.834Z,13.80
2019-05-19T23:25:43.572Z,13.70
2019-05-19T23:28:13.285Z,13.70
2019-05-19T23:30:42.967Z,13.70
2019-05-19T23:33:12.675Z,13.70
2019-05-19T23:35:42.413Z,13.70
2019-05-19T23:38:12.123Z,13.70
2019-05-19T23:40:41.807Z,13.70
2019-05-19T23:43:11.544Z,13.70
2019-05-19T23:45:41.253Z,13.60
2019-05-19T23:48:10.964Z,13.60
2019-05-19T23:50:40.677Z,13.70
2019-05-19T23:53:10.256Z,13.60
2019-05-19T23:55:39.991Z,13.60
2019-05-19T23:58:09.675Z,13.60
